Terminal Aerodrome Forecast
Issued by NWS Midland/Odessa, TX

Current Version | Previous Version | Text Only | Print | Product List | Glossary On
Versions: 1 2 3 4 5 6 7 8 9 10 11 12
000
FTUS44 KMAF 041720
TAFMAF
TAF
KMAF 041720Z 0418/0518 16010G17KT P6SM SCT200
     FM050100 16008KT P6SM SKC=

USA.gov is the U.S. government's official web portal to all federal, state and local government web resources and services.